createdAt,value
2022-08-14T16:00:40.418Z,881.01
2022-08-14T16:01:53.708Z,881.01
2022-08-14T16:03:37.205Z,881.06
2022-08-14T16:04:32.580Z,881.08
2022-08-14T16:06:25.059Z,881.08
2022-08-14T16:07:25.260Z,881.07
2022-08-14T16:09:17.940Z,881.16
2022-08-14T16:10:28.967Z,881.16
2022-08-14T16:12:10.847Z,881.15
2022-08-14T16:13:17.062Z,881.19
2022-08-14T16:15:03.765Z,881.18
2022-08-14T16:16:50.984Z,881.18
2022-08-14T16:17:56.678Z,881.20
2022-08-14T16:18:56.656Z,881.18
2022-08-14T16:19:56.648Z,881.20
2022-08-14T16:22:01.240Z,881.17
2022-08-14T16:22:57.563Z,881.15
2022-08-14T16:25:00.327Z,881.19
2022-08-14T16:25:42.758Z,881.18
2022-08-14T16:27:39.202Z,881.12
2022-08-14T16:28:35.422Z,881.12
2022-08-14T16:30:28.420Z,881.14
2022-08-14T16:31:35.919Z,881.10
2022-08-14T16:33:54.604Z,881.08
2022-08-14T16:34:45.964Z,881.07
2022-08-14T16:36:26.545Z,881.07
2022-08-14T16:37:14.734Z,881.07
2022-08-14T16:39:08.170Z,881.10
2022-08-14T16:40:11.013Z,881.02
2022-08-14T16:42:01.084Z,881.06
2022-08-14T16:43:02.662Z,881.05
2022-08-14T16:44:01.065Z,881.06
2022-08-14T16:45:54.925Z,881.07
2022-08-14T16:46:57.175Z,881.04
2022-08-14T16:48:54.844Z,881.05
2022-08-14T16:50:03.250Z,881.02
2022-08-14T16:51:40.303Z,881.00
2022-08-14T16:52:54.779Z,881.07
2022-08-14T16:54:44.303Z,881.04
2022-08-14T16:55:33.697Z,881.06
2022-08-14T16:56:36.193Z,881.05
2022-08-14T16:58:29.696Z,881.03
2022-08-14T16:59:30.492Z,881.05
2022-08-14T17:01:24.828Z,881.09
2022-08-14T17:02:19.536Z,881.10
2022-08-14T17:04:14.990Z,881.14
2022-08-14T17:05:12.456Z,881.15
2022-08-14T17:07:05.887Z,881.19
2022-08-14T17:08:28.495Z,881.18
2022-08-14T17:09:59.312Z,881.20
2022-08-14T17:10:59.287Z,881.21
2022-08-14T17:12:52.739Z,881.21
2022-08-14T17:14:00.314Z,881.18
2022-08-14T17:15:46.151Z,881.20
2022-08-14T17:16:46.128Z,881.17
2022-08-14T17:18:39.073Z,881.19
2022-08-14T17:19:39.048Z,881.18
2022-08-14T17:21:32.686Z,881.18
2022-08-14T17:22:32.535Z,881.17
2022-08-14T17:24:58.197Z,881.24
2022-08-14T17:25:25.936Z,881.29
2022-08-14T17:27:19.378Z,881.33
2022-08-14T17:28:50.026Z,881.29
2022-08-14T17:30:31.790Z,881.30
2022-08-14T17:31:12.615Z,881.28
2022-08-14T17:33:05.547Z,881.31
2022-08-14T17:34:05.260Z,881.31
2022-08-14T17:35:59.269Z,881.31
2022-08-14T17:36:58.162Z,881.27
2022-08-14T17:38:59.630Z,881.27
2022-08-14T17:39:51.173Z,881.26
2022-08-14T17:41:44.267Z,881.26
2022-08-14T17:42:44.196Z,881.28
2022-08-14T17:44:45.431Z,881.25
2022-08-14T17:45:41.528Z,881.27
2022-08-14T17:47:29.950Z,881.31
2022-08-14T17:49:15.156Z,881.29
2022-08-14T17:51:00.478Z,881.35
2022-08-14T17:51:29.863Z,881.31
2022-08-14T17:53:16.783Z,881.37
2022-08-14T17:54:22.825Z,881.39
2022-08-14T17:56:10.198Z,881.38
2022-08-14T17:57:10.536Z,881.41
2022-08-14T17:59:03.950Z,881.39
2022-08-14T18:00:03.088Z,881.40
2022-08-14T18:01:56.015Z,881.44
2022-08-14T18:02:55.987Z,881.45
2022-08-14T18:04:51.087Z,881.45
2022-08-14T18:06:07.433Z,881.47
2022-08-14T18:07:59.696Z,881.43
2022-08-14T18:08:42.305Z,881.49
2022-08-14T18:09:56.305Z,881.46
2022-08-14T18:11:46.200Z,881.46
2022-08-14T18:12:36.606Z,881.46
2022-08-14T18:14:32.279Z,881.48
2022-08-14T18:15:35.436Z,881.55
2022-08-14T18:17:20.592Z,881.58
2022-08-14T18:18:20.557Z,881.62
2022-08-14T18:21:23.024Z,881.65
2022-08-14T18:21:23.533Z,881.64
2022-08-14T18:23:06.903Z,881.69
2022-08-14T18:24:20.085Z,881.67
2022-08-14T18:25:59.827Z,881.72
2022-08-14T18:27:01.553Z,881.70
2022-08-14T18:28:52.775Z,881.74
2022-08-14T18:29:54.694Z,881.74
2022-08-14T18:30:58.570Z,881.74
2022-08-14T18:32:47.140Z,881.76
2022-08-14T18:33:45.633Z,881.74
2022-08-14T18:35:45.938Z,881.73
2022-08-14T18:36:46.629Z,881.78
2022-08-14T18:38:45.567Z,881.77
2022-08-14T18:39:31.504Z,881.80
2022-08-14T18:41:24.379Z,881.87
2022-08-14T18:42:24.453Z,881.86
2022-08-14T18:44:17.849Z,881.87
2022-08-14T18:45:18.636Z,881.86
2022-08-14T18:47:01.017Z,881.86
2022-08-14T18:48:15.838Z,881.89
2022-08-14T18:49:10.734Z,881.92
2022-08-14T18:51:04.163Z,881.97
2022-08-14T18:52:04.142Z,881.97
2022-08-14T18:53:57.576Z,882.05
2022-08-14T18:54:59.136Z,882.01
2022-08-14T18:56:50.496Z,882.06
2022-08-14T18:57:50.478Z,882.07
2022-08-14T18:59:43.464Z,882.05
2022-08-14T19:00:50.882Z,882.06
2022-08-14T19:02:36.377Z,882.12
2022-08-14T19:03:37.141Z,882.12
2022-08-14T19:05:29.790Z,882.11
2022-08-14T19:06:29.769Z,882.14
2022-08-14T19:07:33.906Z,882.19
2022-08-14T19:09:23.202Z,882.22
2022-08-14T19:10:23.175Z,882.26
2022-08-14T19:12:16.634Z,882.30
2022-08-14T19:13:21.849Z,882.30
2022-08-14T19:15:10.020Z,882.36
2022-08-14T19:16:13.346Z,882.35
2022-08-14T19:18:14.997Z,882.37
2022-08-14T19:19:02.904Z,882.42
2022-08-14T19:20:55.859Z,882.48
2022-08-14T19:21:55.822Z,882.45
2022-08-14T19:22:55.808Z,882.43
2022-08-14T19:24:50.338Z,882.48
2022-08-14T19:25:48.729Z,882.51
2022-08-14T19:27:46.030Z,882.50
2022-08-14T19:28:42.137Z,882.47
2022-08-14T19:30:35.078Z,882.52
2022-08-14T19:31:41.986Z,882.54
2022-08-14T19:33:27.984Z,882.60
2022-08-14T19:34:30.025Z,882.60
2022-08-14T19:36:31.592Z,882.61
2022-08-14T19:37:22.006Z,882.62
2022-08-14T19:39:14.322Z,882.62
2022-08-14T19:40:15.584Z,882.62
2022-08-14T19:42:10.222Z,882.64
2022-08-14T19:43:09.185Z,882.63
2022-08-14T19:45:00.148Z,882.64
2022-08-14T19:46:00.119Z,882.68
2022-08-14T19:47:53.041Z,882.68
2022-08-14T19:48:56.676Z,882.68
2022-08-14T19:50:45.962Z,882.68
2022-08-14T19:51:45.930Z,882.65
2022-08-14T19:53:39.783Z,882.63
2022-08-14T19:54:38.844Z,882.63
2022-08-14T19:56:32.270Z,882.63
2022-08-14T19:57:32.245Z,882.62
2022-08-14T19:59:25.187Z,882.67
2022-08-14T20:00:29.571Z,882.67
2022-08-14T20:02:20.907Z,882.67
2022-08-14T20:03:24.037Z,882.69
2022-08-14T20:05:12.284Z,882.67
2022-08-14T20:06:11.469Z,882.66
2022-08-14T20:08:06.248Z,882.64
2022-08-14T20:10:59.044Z,882.64
2022-08-14T20:11:06.406Z,882.60
2022-08-14T20:12:02.585Z,882.59
2022-08-14T20:12:58.239Z,882.57
2022-08-14T20:14:51.889Z,882.55
2022-08-14T20:15:50.660Z,882.58
2022-08-14T20:17:43.618Z,882.57
2022-08-14T20:18:49.226Z,882.58
2022-08-14T20:20:37.025Z,882.57
2022-08-14T20:21:36.995Z,882.58
2022-08-14T20:23:38.258Z,882.53
2022-08-14T20:24:31.539Z,882.57
2022-08-14T20:26:30.638Z,882.52
2022-08-14T20:27:23.878Z,882.51
2022-08-14T20:29:28.581Z,882.48
2022-08-14T20:30:35.046Z,882.46
2022-08-14T20:32:21.488Z,882.39
2022-08-14T20:33:21.460Z,882.37
2022-08-14T20:35:14.398Z,882.37
2022-08-14T20:36:14.379Z,882.38
2022-08-14T20:38:29.583Z,882.36
2022-08-14T20:39:07.294Z,882.37
2022-08-14T20:41:00.227Z,882.37
2022-08-14T20:42:00.195Z,882.35
2022-08-14T20:43:53.637Z,882.31
2022-08-14T20:44:55.203Z,882.29
2022-08-14T20:46:47.046Z,882.29
2022-08-14T20:47:58.535Z,882.22
2022-08-14T20:49:39.945Z,882.27
2022-08-14T20:50:44.823Z,882.28
2022-08-14T20:51:47.426Z,882.28
2022-08-14T20:53:33.381Z,882.28
2022-08-14T20:54:33.850Z,882.26
2022-08-14T20:56:28.113Z,882.26
2022-08-14T20:57:26.718Z,882.24
2022-08-14T20:59:19.647Z,882.21
2022-08-14T21:00:19.631Z,882.22
2022-08-14T21:02:25.500Z,882.22
2022-08-14T21:03:12.539Z,882.21
2022-08-14T21:05:16.090Z,882.28
2022-08-14T21:06:17.176Z,882.30
2022-08-14T21:08:08.076Z,882.30
2022-08-14T21:08:58.840Z,882.31
2022-08-14T21:10:52.285Z,882.31
2022-08-14T21:12:02.602Z,882.37
2022-08-14T21:14:21.054Z,882.34
2022-08-14T21:14:51.648Z,882.37
2022-08-14T21:16:45.081Z,882.36
2022-08-14T21:17:38.188Z,882.35
2022-08-14T21:19:31.512Z,882.34
2022-08-14T21:20:31.503Z,882.36
2022-08-14T21:22:24.432Z,882.36
2022-08-14T21:23:24.434Z,882.40
2022-08-14T21:25:20.864Z,882.44
2022-08-14T21:26:17.812Z,882.44
2022-08-14T21:28:27.689Z,882.47
2022-08-14T21:29:10.707Z,882.51
2022-08-14T21:31:04.164Z,882.54
2022-08-14T21:32:04.147Z,882.53
2022-08-14T21:33:57.584Z,882.56
2022-08-14T21:34:57.549Z,882.53
2022-08-14T21:36:50.997Z,882.50
2022-08-14T21:37:50.960Z,882.48
2022-08-14T21:38:50.959Z,882.49
2022-08-14T21:40:46.110Z,882.47
2022-08-14T21:41:50.332Z,882.51
2022-08-14T21:43:39.752Z,882.49
2022-08-14T21:44:43.755Z,882.49
2022-08-14T21:46:30.212Z,882.49
2022-08-14T21:47:30.195Z,882.50
2022-08-14T21:49:23.402Z,882.46
2022-08-14T21:50:39.500Z,882.44
2022-08-14T21:52:49.451Z,882.44
2022-08-14T21:53:16.514Z,882.41
2022-08-14T21:54:32.363Z,882.46
2022-08-14T21:56:11.553Z,882.45
2022-08-14T21:57:13.629Z,882.51
2022-08-14T21:59:02.844Z,882.56
